Flight Track Log - Related Links

Times and Time Zones

All times are in EDT time to prevent confusion due to time zone crossing. See the SWA1464 flight status page for this flight to view local times or setup timezone preferences in your user account.

Time Position Orientation Groundspeed Altitude Reporting Facility
EDT Latitude Longitude Course Direction KTS MPH feet Rate Location/Type
Sun 07:51:41 PM 28.4333 -81.3000 360° North 166 191 800  Level Orlando TRACON
Sun 07:52:30 PM 28.4833 -81.3000 360° North 193 222 2,200 1,878 Climbing Orlando TRACON
Sun 07:53:36 PM 28.5500 -81.3167 348° North 264 304 4,400 2,873 Climbing Orlando TRACON
Sun 07:55:15 PM 28.5758 -81.4389 284° West 258 297 10,100 3,472 Climbing Jacksonville Center
Sun 07:56:15 PM 28.5494 -81.5194 250° West 258 297 13,600 3,350 Climbing Jacksonville Center
Sun 07:57:15 PM 28.5233 -81.6050 251° West 277 319 16,800 3,200 Climbing Jacksonville Center
Sun 07:58:15 PM 28.4969 -81.6925 251° West 291 335 20,000 2,950 Climbing Jacksonville Center
Sun 07:59:15 PM 28.4664 -81.7850 249° West 301 346 22,700 2,500 Climbing Jacksonville Center
Sun 08:00:15 PM 28.4464 -81.8797 257° West 306 352 25,000 1,650 Climbing Jacksonville Center
Sun 08:01:15 PM 28.4847 -81.9833 293° West 317 365 26,000 1,350 Climbing Jacksonville Center
Sun 08:02:15 PM 28.5481 -82.0844 306° West 358 412 27,700 1,750 Climbing Jacksonville Center
Sun 08:03:15 PM 28.6653 -82.1236 344° North 363 418 29,500 1,700 Climbing Jacksonville Center
Sun 08:04:15 PM 28.7844 -82.1631 344° North 398 458 31,100 1,850 Climbing Jacksonville Center
Sun 08:05:15 PM 28.9056 -82.2047 343° North 434 499 33,200 1,900 Climbing Jacksonville Center
Sun 08:06:15 PM 29.0228 -82.2419 344° North 439 505 34,900 1,500 Climbing Jacksonville Center
Sun 08:07:15 PM 29.1397 -82.2792 344° North 439 505 36,200 1,250 Climbing Jacksonville Center
Sun 08:08:15 PM 29.2611 -82.3214 343° North 439 505 37,400 900 Climbing Jacksonville Center
Sun 08:09:15 PM 29.3781 -82.3589 344° North 439 505 38,000 550 Climbing Jacksonville Center
Sun 08:10:15 PM 29.4972 -82.3964 345° North 439 505 38,500 500 Climbing Jacksonville Center
Sun 08:11:15 PM 29.6186 -82.4386 343° North 439 505 39,000 250 Climbing Jacksonville Center
Sun 08:12:15 PM 29.7356 -82.4764 344° North 439 505 39,000  Level Jacksonville Center
Sun 08:13:15 PM 29.8525 -82.5167 343° North 439 505 39,000  Level Jacksonville Center
Sun 08:14:15 PM 29.9717 -82.5544 345° North 439 505 39,000  Level Jacksonville Center
Sun 08:15:15 PM 30.0761 -82.5950 341° North 439 505 39,000  Level Jacksonville Center
Sun 08:16:15 PM 30.1953 -82.6331 345° North 439 505 39,000  Level Jacksonville Center
Sun 08:17:15 PM 30.3247 -82.6761 344° North 439 505 39,000  Level Jacksonville Center
Sun 08:18:15 PM 30.4417 -82.7142 344° North 439 505 39,000  Level Jacksonville Center
Sun 08:19:15 PM 30.5525 -82.7528 343° North 446 513 39,000  Level Jacksonville Center
Sun 08:20:15 PM 30.6694 -82.7961 342° North 441 507 39,000  Level Jacksonville Center
Sun 08:21:15 PM 30.7886 -82.8369 344° North 441 507 39,000  Level Jacksonville Center
Sun 08:22:15 PM 30.9075 -82.8781 343° North 441 507 39,000  Level Jacksonville Center
Sun 08:23:15 PM 31.0222 -82.9192 343° North 441 507 39,000  Level Jacksonville Center
Sun 08:24:15 PM 31.1433 -82.9558 345° North 441 507 39,000  Level Jacksonville Center
Sun 08:25:15 PM 31.2644 -82.9947 345° North 448 516 39,000  Level Jacksonville Center
Sun 08:26:15 PM 31.3814 -83.0411 341° North 440 506 39,000  Level Jacksonville Center
Sun 08:28:21 PM 31.6367 -83.1292 344° North 446 513 39,000  Level Atlanta Center
Sun 08:29:21 PM 31.7561 -83.1694 344° North 446 513 39,000  Level Atlanta Center
Sun 08:30:21 PM 31.8753 -83.2122 343° North 446 513 39,000  Level Atlanta Center
Sun 08:31:21 PM 31.9967 -83.2553 343° North 446 513 39,000  Level Atlanta Center
Sun 08:32:21 PM 32.1181 -83.2983 343° North 446 513 39,000  Level Atlanta Center
Sun 08:33:21 PM 32.2372 -83.3414 343° North 446 513 39,000  Level Atlanta Center
Sun 08:34:21 PM 32.3586 -83.3847 343° North 446 513 39,000  Level Atlanta Center
Sun 08:35:21 PM 32.4797 -83.4283 343° North 446 513 39,000  Level Atlanta Center
Sun 08:36:21 PM 32.6011 -83.4692 344° North 446 513 39,000  Level Atlanta Center
Sun 08:37:21 PM 32.7222 -83.5153 342° North 446 513 39,000  Level Atlanta Center
Sun 08:38:21 PM 32.8436 -83.5567 344° North 446 513 39,000  Level Atlanta Center
Sun 08:39:21 PM 32.9647 -83.6006 343° North 451 519 39,000  Level Atlanta Center
Sun 08:40:21 PM 33.0881 -83.6447 343° North 451 519 39,000  Level Atlanta Center
Sun 08:41:21 PM 33.2114 -83.6864 344° North 462 532 39,000  Level Atlanta Center
Sun 08:42:21 PM 33.3325 -83.7331 342° North 462 532 39,000  Level Atlanta Center
Sun 08:43:21 PM 33.4558 -83.7772 343° North 462 532 39,000  Level Atlanta Center
Sun 08:44:21 PM 33.5917 -83.8269 343° North 462 532 39,000  Level Atlanta Center
Sun 08:45:21 PM 33.7189 -83.8714 344° North 468 539 39,000  Level Atlanta Center
Sun 08:46:21 PM 33.8464 -83.9211 342° North 468 539 39,000  Level Atlanta Center
Sun 08:47:21 PM 33.9675 -83.9636 344° North 468 539 39,000  Level Atlanta Center
Sun 08:48:21 PM 34.0947 -84.0111 343° North 468 539 39,000  Level Atlanta Center
Sun 08:49:21 PM 34.2222 -84.0589 343° North 468 539 39,000  Level Atlanta Center
Sun 08:50:21 PM 34.3494 -84.1067 343° North 468 539 39,000  Level Atlanta Center
Sun 08:51:21 PM 34.4789 -84.1547 343° North 476 548 39,000  Level Atlanta Center
Sun 08:52:21 PM 34.6061 -84.2028 343° North 482 555 39,000  Level Atlanta Center
Sun 08:53:21 PM 34.7375 -84.2486 344° North 482 555 39,000  Level Atlanta Center
Sun 08:54:21 PM 34.8647 -84.2994 342° North 482 555 39,000  Level Atlanta Center
Sun 08:55:21 PM 34.9750 -84.3456 341° North 476 548 39,000  Level Atlanta Center
Sun 08:56:21 PM 35.1022 -84.3917 343° North 471 542 39,000  Level Atlanta Center
Sun 08:57:21 PM 35.2294 -84.4406 343° North 471 542 39,000  Level Atlanta Center
Sun 08:58:21 PM 35.3586 -84.4894 343° North 481 554 39,000  Level Atlanta Center
Sun 08:59:21 PM 35.4858 -84.5386 343° North 476 548 39,000 -50 Level Atlanta Center
Sun 09:00:21 PM 35.6128 -84.5853 343° North 476 548 38,900  Descending Atlanta Center
Sun 09:01:21 PM 35.7397 -84.6347 342° North 481 554 39,000 50 Climbing Atlanta Center
Sun 09:02:21 PM 35.8667 -84.6819 343° North 475 547 39,000  Level Atlanta Center
Sun 09:04:15 PM 36.1083 -84.7772 342° North 478 550 39,000  Level Indianapolis Center
Sun 09:05:16 PM 36.2328 -84.8264 342° North 474 545 39,000  Level Indianapolis Center
Sun 09:06:17 PM 36.3594 -84.8761 342° North 476 548 39,000  Level Indianapolis Center
Sun 09:07:19 PM 36.4847 -84.9261 342° North 475 547 39,000  Level Indianapolis Center
Sun 09:08:20 PM 36.6133 -84.9728 344° North 480 552 39,000  Level Indianapolis Center
Sun 09:09:21 PM 36.7708 -85.0108 349° North 480 552 39,000  Level Indianapolis Center
Sun 09:10:22 PM 36.9017 -85.0464 348° North 479 551 39,000  Level Indianapolis Center
Sun 09:11:23 PM 37.0311 -85.0814 348° North 477 549 39,000  Level Indianapolis Center
Sun 09:12:24 PM 37.1636 -85.1161 348° North 480 552 39,000  Level Indianapolis Center
Sun 09:13:26 PM 37.2942 -85.1514 348° North 479 551 39,000  Level Indianapolis Center
Sun 09:14:27 PM 37.4247 -85.1856 348° North 476 548 39,000  Level Indianapolis Center
Sun 09:15:28 PM 37.5564 -85.2208 348° North 479 551 39,000  Level Indianapolis Center
Sun 09:16:29 PM 37.6864 -85.2575 347° North 478 550 39,000 -541 Level Indianapolis Center
Sun 09:17:30 PM 37.8178 -85.2939 348° North 480 552 37,900 -1,073 Descending Indianapolis Center
Sun 09:18:32 PM 37.9522 -85.3294 348° North 494 568 36,800 -1,024 Descending Indianapolis Center
Sun 09:19:33 PM 38.0844 -85.3611 349° North 490 564 35,800 -885 Descending Indianapolis Center
Sun 09:20:34 PM 38.2097 -85.3981 347° North 470 541 35,000 -393 Descending Indianapolis Center
Sun 09:21:35 PM 38.3667 -85.4414 348° North 477 549 35,000  Level Indianapolis Center
Sun 09:22:37 PM 38.4944 -85.4772 348° North 472 543 35,000  Level Indianapolis Center
Sun 09:23:38 PM 38.6225 -85.5114 348° North 471 542 35,000  Level Indianapolis Center
Sun 09:24:39 PM 38.7361 -85.5447 347° North 472 543 35,000  Level Indianapolis Center
Sun 09:25:40 PM 38.8639 -85.5806 348° North 472 543 35,000  Level Indianapolis Center
Sun 09:26:42 PM 39.0200 -85.6242 348° North 479 551 35,000 -634 Level Indianapolis Center
Sun 09:27:43 PM 39.1503 -85.6614 348° North 480 552 33,700 -1,279 Descending Indianapolis Center
Sun 09:28:44 PM 39.2778 -85.6972 348° North 474 545 32,400 -1,377 Descending Indianapolis Center
Sun 09:29:45 PM 39.4053 -85.7325 348° North 472 543 30,900 -1,317 Descending Indianapolis Center
Sun 09:30:47 PM 39.5314 -85.7689 347° North 469 540 29,700 -1,073 Descending Indianapolis Center
Sun 09:31:48 PM 39.6539 -85.8036 348° North 459 528 28,700 -1,180 Descending Indianapolis Center
Sun 09:32:49 PM 39.7747 -85.8383 348° North 452 520 27,300 -1,967 Descending Indianapolis Center
Sun 09:33:50 PM 39.9153 -85.8789 348° North 440 506 24,700 -1,610 Descending Indianapolis Center
Sun 09:34:52 PM 40.0269 -85.9125 347° North 422 486 24,000 -341 Descending Indianapolis Center
Sun 09:35:53 PM 40.1297 -85.9856 331° Northwest 432 497 24,000  Level Indianapolis Center
Sun 09:36:44 PM 40.2092 -86.0486 329° Northwest 428 493 24,000  Level Chicago Center
Sun 09:37:46 PM 40.3072 -86.1308 327° Northwest 424 488 24,000 -488 Level Chicago Center
Sun 09:38:47 PM 40.4247 -86.2281 328° Northwest 421 484 23,000 -976 Descending Chicago Center
Sun 09:39:49 PM 40.5217 -86.3097 327° Northwest 418 481 22,000 -488 Descending Chicago Center
Sun 09:40:50 PM 40.6186 -86.3911 327° Northwest 415 478 22,000 -976 Level Chicago Center
Sun 09:41:52 PM 40.7208 -86.4794 327° Northwest 407 468 20,000 -2,049 Descending Chicago Center
Sun 09:42:53 PM 40.8144 -86.5572 328° Northwest 400 460 17,800 -2,213 Descending Chicago Center
Sun 09:43:54 PM 40.9078 -86.6367 327° Northwest 399 459 15,500 -2,195 Descending Chicago Center
Sun 09:44:56 PM 40.9978 -86.7133 327° Northwest 389 448 13,300 -2,049 Descending Chicago Center
Sun 09:45:57 PM 41.0794 -86.7825 327° Northwest 378 435 11,300 -1,122 Descending Chicago Center
Sun 09:46:59 PM 41.1764 -86.8636 328° Northwest 348 400 11,000 -390 Descending Chicago Center
Sun 09:48:00 PM 41.2539 -86.9314 327° Northwest 338 389 10,500 -787 Descending Chicago Center
Sun 09:49:01 PM 41.3289 -86.9978 326° Northwest 328 377 9,400 -1,268 Descending Chicago Center
Sun 09:50:03 PM 41.4011 -87.0594 327° Northwest 314 361 7,900 -1,317 Descending Chicago Center
Sun 09:51:04 PM 41.4719 -87.1194 328° Northwest 308 354 6,700 -1,214 Descending Chicago Center
Sun 09:51:27 PM 41.5000 -87.1500 321° Northwest 296 341 6,200 -578 Descending Chicago TRACON
Sun 09:52:27 PM 41.5167 -87.2500 283° West 295 339 5,900 -619 Descending Chicago TRACON
Sun 09:53:33 PM 41.5333 -87.3667 281° West 292 336 4,900 -950 Descending Chicago TRACON
Sun 09:54:08 PM 41.5333 -87.4369 270° West 290 334 4,300 -557 Descending Chicago Center
Sun 09:55:10 PM 41.5431 -87.5400 277° West 286 329 4,000 -146 Descending Chicago Center
Sun 09:56:11 PM 41.5528 -87.6419 277° West 282 325 4,000  Level Chicago Center
Sun 09:57:12 PM 41.5781 -87.7364 290° West 281 323 4,000 -49 Level Chicago Center
Sun 09:58:14 PM 41.6200 -87.8117 307° West 266 306 3,900 -220 Descending Chicago Center
Sun 09:58:34 PM 41.6333 -87.8333 309° West 224 258 3,700 -675 Descending Chicago TRACON
Sun 09:59:34 PM 41.6833 -87.8667 334° Northwest 185 213 3,000 -750 Descending Chicago TRACON
Sun 10:00:34 PM 41.7167 -87.8333 37° Northeast 162 186 2,200 -800 Descending Chicago TRACON
Sun 10:01:34 PM 41.7500 -87.8000 37° Northeast 125 144 1,400 -684 Descending Chicago TRACON
Sun 10:02:28 PM 41.7667 -87.7667 56° Northeast 127 146 900 -556 Descending Chicago TRACON
Sun 10:04:00 PM 41.7833 -87.7500 33° Northeast  Level FlightAware Approximate

Login

Don't have an account? Register now (free) for customized features, flight alerts, and more!